Time;durP1;ratioP1;P1;durP2;ratioP2;P2;SDS_P1;SDS_P2;PMS_P1;PMS_P2;Temp;Humidity;BMP_temperature;BMP_pressure;BME280_temperature;BME280_humidity;BME280_pressure;Samples;Min_cycle;Max_cycle;Signal;HPM_P1;HPM_P2
2022/03/22 00:01:11;;;;;;;35.92;24.33;;;6.50;99.90;;;;;;5092931;28;20048;-71
2022/03/22 00:03:38;;;;;;;36.00;24.70;;;6.40;99.90;;;;;;5074868;28;20489;-71
2022/03/22 00:06:05;;;;;;;37.92;24.77;;;6.40;99.90;;;;;;5074243;28;20056;-70
2022/03/22 00:08:32;;;;;;;40.25;25.92;;;6.40;99.90;;;;;;5092684;28;20048;-70
2022/03/22 00:10:59;;;;;;;37.72;24.65;;;6.40;99.90;;;;;;5092395;28;20548;-70
2022/03/22 00:13:28;;;;;;;38.05;24.95;;;6.40;99.90;;;;;;5091954;28;20492;-70
2022/03/22 00:15:56;;;;;;;37.22;25.77;;;6.40;99.90;;;;;;5074610;28;20093;-71
2022/03/22 00:18:24;;;;;;;42.30;26.80;;;6.50;99.90;;;;;;5092958;28;20380;-71
2022/03/22 00:20:52;;;;;;;39.30;26.83;;;6.30;99.90;;;;;;5092224;28;20098;-70
2022/03/22 00:23:19;;;;;;;38.63;25.95;;;6.30;99.90;;;;;;5074729;28;20048;-70
2022/03/22 00:25:46;;;;;;;42.03;25.90;;;6.30;99.90;;;;;;5092403;28;20083;-69
2022/03/22 00:28:13;;;;;;;40.63;25.08;;;6.30;99.90;;;;;;5091931;28;20384;-69
2022/03/22 00:30:40;;;;;;;38.42;24.80;;;6.30;99.90;;;;;;5092722;28;20449;-69
2022/03/22 00:33:08;;;;;;;37.58;24.88;;;6.30;99.90;;;;;;5074286;28;20090;-69
2022/03/22 00:35:38;;;;;;;40.08;26.48;;;6.30;99.90;;;;;;5092160;28;20048;-69
2022/03/22 00:38:08;;;;;;;41.92;24.83;;;6.30;99.90;;;;;;5092297;28;20496;-69
2022/03/22 00:40:35;;;;;;;41.63;25.80;;;6.20;99.90;;;;;;5070703;28;20049;-69
2022/03/22 00:43:03;;;;;;;44.20;26.27;;;6.20;99.90;;;;;;5071554;28;20425;-69
2022/03/22 00:45:32;;;;;;;43.58;26.90;;;6.20;99.90;;;;;;5054269;28;20114;-69
2022/03/22 00:47:59;;;;;;;38.63;24.40;;;6.20;99.90;;;;;;5053838;28;20055;-69
2022/03/22 00:50:28;;;;;;;42.08;26.48;;;6.20;99.90;;;;;;5072114;28;20553;-69
2022/03/22 00:52:58;;;;;;;38.53;26.98;;;6.20;99.90;;;;;;5072471;28;20443;-69
2022/03/22 00:55:27;;;;;;;40.85;27.25;;;6.20;99.90;;;;;;5084658;28;20052;-69
2022/03/22 00:57:55;;;;;;;39.72;26.73;;;6.20;99.90;;;;;;5095634;28;20048;-69
2022/03/22 01:00:24;;;;;;;40.05;26.85;;;6.10;99.90;;;;;;5095784;28;20093;-69
2022/03/22 01:02:53;;;;;;;45.85;27.13;;;6.10;99.90;;;;;;5095114;28;20411;-69
2022/03/22 01:05:21;;;;;;;42.08;27.42;;;6.10;99.90;;;;;;5077956;28;20055;-69
2022/03/22 01:07:50;;;;;;;40.05;24.75;;;6.10;99.90;;;;;;5095275;28;20487;-70
2022/03/22 01:10:21;;;;;;;42.70;26.65;;;6.10;99.90;;;;;;5095258;28;20055;-71
2022/03/22 01:12:48;;;;;;;39.90;26.42;;;6.10;99.90;;;;;;5077910;28;20113;-70
2022/03/22 01:15:17;;;;;;;43.85;25.90;;;6.00;99.90;;;;;;5077562;28;20101;-70
2022/03/22 01:17:44;;;;;;;37.13;26.85;;;6.00;99.90;;;;;;5076689;28;20052;-70
2022/03/22 01:20:12;;;;;;;39.50;25.92;;;6.00;99.90;;;;;;5095628;28;20066;-70
2022/03/22 01:22:40;;;;;;;43.33;26.95;;;6.00;99.90;;;;;;5095085;28;20549;-70
2022/03/22 01:25:09;;;;;;;42.72;26.35;;;6.00;99.90;;;;;;5094449;28;20522;-69
2022/03/22 01:27:38;;;;;;;40.90;25.90;;;6.00;99.90;;;;;;5077412;28;20048;-70
2022/03/22 01:30:07;;;;;;;40.45;24.35;;;6.00;99.90;;;;;;5076746;28;20569;-70
2022/03/22 01:32:34;;;;;;;37.00;26.17;;;6.00;99.90;;;;;;5094791;28;20522;-70
2022/03/22 01:35:01;;;;;;;38.05;25.52;;;6.10;99.90;;;;;;5077230;28;20059;-70
2022/03/22 01:37:28;;;;;;;38.05;24.83;;;6.00;99.90;;;;;;5073111;28;20123;-70
2022/03/22 01:39:55;;;;;;;39.28;26.92;;;6.10;99.90;;;;;;5057007;28;20109;-70
2022/03/22 01:42:22;;;;;;;40.42;25.65;;;6.10;99.90;;;;;;5075073;28;20045;-70
2022/03/22 01:44:51;;;;;;;38.67;25.42;;;6.10;99.90;;;;;;5074106;28;20420;-70
2022/03/22 01:47:19;;;;;;;40.30;25.63;;;6.10;99.90;;;;;;5057181;28;20148;-71
2022/03/22 01:49:47;;;;;;;42.63;27.52;;;6.10;99.90;;;;;;5056965;28;20145;-71
2022/03/22 01:52:16;;;;;;;45.92;26.48;;;6.10;99.90;;;;;;5078112;28;20492;-70
2022/03/22 01:54:43;;;;;;;42.75;27.02;;;6.10;99.90;;;;;;5076560;28;20063;-71
2022/03/22 01:57:10;;;;;;;43.40;28.50;;;6.20;99.90;;;;;;5095033;28;20048;-71
2022/03/22 01:59:37;;;;;;;40.28;26.88;;;6.20;99.90;;;;;;5075970;28;20052;-70
2022/03/22 02:07:37;;;;;;;42.80;27.70;;;6.30;99.90;;;;;;5073963;28;20055;-70
2022/03/22 02:10:04;;;;;;;44.53;27.25;;;6.20;99.90;;;;;;5056654;28;20098;-70
2022/03/22 02:12:31;;;;;;;40.38;26.10;;;6.20;99.90;;;;;;5073997;28;20057;-70
2022/03/22 02:14:58;;;;;;;41.38;26.75;;;6.30;99.90;;;;;;5074552;28;20053;-71
2022/03/22 02:17:26;;;;;;;39.05;26.65;;;6.20;99.90;;;;;;5056528;28;20079;-71
2022/03/22 02:19:54;;;;;;;40.28;26.75;;;6.20;99.90;;;;;;5075482;28;20106;-70
2022/03/22 02:22:26;;;;;;;41.35;26.35;;;6.20;99.90;;;;;;5094586;28;20101;-71
2022/03/22 02:24:55;;;;;;;42.55;26.85;;;6.30;99.90;;;;;;5076385;28;20048;-70
2022/03/22 02:27:25;;;;;;;41.83;26.90;;;6.30;99.90;;;;;;5093438;28;20121;-71
2022/03/22 02:29:52;;;;;;;42.55;25.65;;;6.40;99.90;;;;;;5076420;28;20061;-71
2022/03/22 02:32:24;;;;;;;43.53;26.65;;;6.50;99.90;;;;;;5094305;28;20048;-72
2022/03/22 02:34:51;;;;;;;44.17;27.17;;;6.40;99.90;;;;;;5071702;28;20090;-71
2022/03/22 02:37:18;;;;;;;40.67;26.42;;;6.50;99.90;;;;;;5073935;28;20080;-70
2022/03/22 02:39:44;;;;;;;38.47;25.83;;;6.50;99.90;;;;;;5085985;28;20052;-71
2022/03/22 02:42:13;;;;;;;44.05;27.88;;;6.50;99.90;;;;;;5075348;28;20101;-71
2022/03/22 02:44:39;;;;;;;40.63;27.08;;;6.50;99.90;;;;;;5075786;28;20121;-71
2022/03/22 02:47:07;;;;;;;46.25;27.98;;;6.50;99.90;;;;;;5094117;28;20048;-71
2022/03/22 02:49:34;;;;;;;39.60;27.70;;;6.50;99.90;;;;;;5075179;28;20056;-71
2022/03/22 02:52:01;;;;;;;41.38;26.98;;;6.50;99.90;;;;;;5075890;28;20110;-70
2022/03/22 02:54:28;;;;;;;36.85;26.02;;;6.50;99.90;;;;;;5071240;28;20055;-70
2022/03/22 02:56:55;;;;;;;41.10;26.00;;;6.40;99.90;;;;;;5073374;28;20523;-70
2022/03/22 02:59:23;;;;;;;41.47;26.48;;;6.40;99.90;;;;;;5073300;28;20496;-70
2022/03/22 03:01:50;;;;;;;44.90;28.10;;;6.30;99.90;;;;;;5072631;28;20106;-70
2022/03/22 03:04:17;;;;;;;43.80;27.83;;;6.30;99.90;;;;;;5090333;28;20451;-70
2022/03/22 03:06:45;;;;;;;36.65;25.60;;;6.30;99.90;;;;;;5093675;28;20109;-70
2022/03/22 03:09:12;;;;;;;40.15;27.25;;;6.30;99.90;;;;;;5074869;28;20147;-70
2022/03/22 03:11:39;;;;;;;42.72;27.60;;;6.20;99.90;;;;;;5075554;28;20056;-70
2022/03/22 03:16:53;;;;;;;43.13;27.63;;;6.20;99.90;;;;;;5074682;28;20051;-70
2022/03/22 03:19:20;;;;;;;40.97;27.75;;;6.20;99.90;;;;;;5092452;28;20113;-70
2022/03/22 03:21:46;;;;;;;41.97;26.23;;;6.10;99.90;;;;;;5093248;28;20488;-70
2022/03/22 03:24:13;;;;;;;42.05;27.17;;;6.10;99.90;;;;;;5092837;28;20100;-70
2022/03/22 03:26:40;;;;;;;42.00;26.83;;;6.10;99.90;;;;;;5092954;28;20105;-70
2022/03/22 03:29:09;;;;;;;45.45;28.02;;;6.10;99.90;;;;;;5093381;28;20055;-71
2022/03/22 03:31:36;;;;;;;41.53;27.75;;;6.10;99.90;;;;;;5092841;28;20052;-71
2022/03/22 03:34:04;;;;;;;40.10;27.70;;;6.10;99.90;;;;;;5093037;28;20052;-71
2022/03/22 03:36:31;;;;;;;41.83;27.90;;;6.10;99.90;;;;;;5075622;28;20113;-71
2022/03/22 03:38:59;;;;;;;42.63;28.38;;;6.10;99.90;;;;;;5074689;28;20051;-71
2022/03/22 03:47:07;;;;;;;46.83;26.95;;;6.10;99.90;;;;;;5074241;28;20384;-70
2022/03/22 03:49:37;;;;;;;41.28;27.48;;;6.10;99.90;;;;;;5093054;28;20404;-70
2022/03/22 03:52:06;;;;;;;47.88;28.80;;;6.10;99.90;;;;;;5074832;28;20050;-70
2022/03/22 03:54:33;;;;;;;40.13;26.63;;;6.10;99.90;;;;;;5093135;28;20052;-70
2022/03/22 03:57:00;;;;;;;42.58;26.33;;;6.10;99.90;;;;;;5075222;28;20044;-71
2022/03/22 03:59:27;;;;;;;43.65;26.98;;;6.10;99.90;;;;;;5074498;28;20051;-71
2022/03/22 04:01:54;;;;;;;42.35;27.75;;;6.10;99.90;;;;;;5092994;28;20051;-70
2022/03/22 04:04:21;;;;;;;41.67;27.63;;;6.10;99.90;;;;;;5075031;28;20048;-72
2022/03/22 04:06:50;;;;;;;44.85;28.45;;;6.10;99.90;;;;;;5092237;28;20540;-72
2022/03/22 04:09:17;;;;;;;45.85;27.90;;;6.20;99.90;;;;;;5093100;28;20056;-71
2022/03/22 04:11:44;;;;;;;44.15;28.63;;;6.10;99.90;;;;;;5092414;28;20048;-71
2022/03/22 04:14:12;;;;;;;45.10;26.67;;;6.00;99.90;;;;;;5092791;28;20083;-71
2022/03/22 04:16:39;;;;;;;41.22;28.15;;;6.10;99.90;;;;;;5092203;28;20136;-71
2022/03/22 04:19:07;;;;;;;46.38;28.33;;;6.00;99.90;;;;;;5074233;28;20063;-70
2022/03/22 04:21:35;;;;;;;43.03;26.50;;;6.00;99.90;;;;;;5093087;28;20048;-70
2022/03/22 04:24:05;;;;;;;39.15;26.90;;;6.00;99.90;;;;;;5074958;28;20055;-69
2022/03/22 04:26:33;;;;;;;41.85;26.13;;;6.00;99.90;;;;;;5091793;28;20056;-70
2022/03/22 04:34:29;;;;;;;42.30;28.20;;;6.00;99.90;;;;;;5095955;28;20048;-70
2022/03/22 04:36:57;;;;;;;43.00;28.50;;;6.00;99.90;;;;;;5078495;28;20095;-70
2022/03/22 04:39:25;;;;;;;43.70;29.20;;;6.00;99.90;;;;;;5077994;28;20055;-70
2022/03/22 04:41:52;;;;;;;37.95;25.55;;;6.00;99.90;;;;;;5077660;28;20049;-70
2022/03/22 04:44:19;;;;;;;40.90;27.65;;;6.00;99.90;;;;;;5096092;28;20097;-70
2022/03/22 04:46:46;;;;;;;39.60;26.83;;;6.00;99.90;;;;;;5092479;28;20491;-70
2022/03/22 04:49:13;;;;;;;43.80;27.50;;;6.00;99.90;;;;;;5079665;28;20141;-70
2022/03/22 04:57:11;;;;;;;40.70;26.40;;;5.90;99.90;;;;;;5068267;28;20056;-70
2022/03/22 04:59:38;;;;;;;38.55;26.42;;;5.90;99.90;;;;;;5088373;28;20044;-70
2022/03/22 05:02:05;;;;;;;41.78;27.92;;;5.90;99.90;;;;;;5073420;28;20047;-70
2022/03/22 05:04:32;;;;;;;40.80;26.63;;;5.90;99.90;;;;;;5085699;28;20044;-70
2022/03/22 05:06:59;;;;;;;40.92;25.55;;;5.90;99.90;;;;;;5092080;28;20048;-73
2022/03/22 05:09:28;;;;;;;45.22;27.25;;;5.90;99.90;;;;;;5070379;28;20102;-70
2022/03/22 05:11:55;;;;;;;47.03;28.08;;;5.80;99.90;;;;;;5069019;28;20404;-70
2022/03/22 05:14:22;;;;;;;40.53;26.60;;;5.90;99.90;;;;;;5067615;28;20569;-70
2022/03/22 05:16:49;;;;;;;39.85;26.35;;;5.80;99.90;;;;;;5092131;28;20510;-70
2022/03/22 05:19:16;;;;;;;43.40;26.10;;;5.80;99.90;;;;;;5088463;28;20456;-70
2022/03/22 05:21:43;;;;;;;48.03;28.52;;;5.80;99.90;;;;;;5086950;28;20051;-70
2022/03/22 05:24:10;;;;;;;43.83;26.77;;;5.80;99.90;;;;;;5068179;28;20052;-71
2022/03/22 05:26:38;;;;;;;46.35;27.85;;;5.80;99.90;;;;;;5064888;28;20061;-70
2022/03/22 05:29:05;;;;;;;40.78;28.17;;;5.70;99.90;;;;;;5070271;28;20109;-70
2022/03/22 05:31:34;;;;;;;37.85;27.33;;;5.70;99.90;;;;;;5066424;28;20041;-70
2022/03/22 05:34:01;;;;;;;41.67;27.17;;;5.70;99.90;;;;;;5066159;28;20052;-70
2022/03/22 05:36:28;;;;;;;40.83;27.65;;;5.70;99.90;;;;;;5064571;28;20070;-70
2022/03/22 05:38:56;;;;;;;43.63;28.38;;;5.70;99.90;;;;;;5059344;28;20053;-70
2022/03/22 05:41:23;;;;;;;41.10;27.48;;;5.70;99.90;;;;;;5052124;28;20064;-72
2022/03/22 05:43:52;;;;;;;50.63;29.60;;;5.70;99.90;;;;;;5064332;28;20052;-71
2022/03/22 05:46:19;;;;;;;42.45;28.27;;;5.70;99.90;;;;;;5069068;28;20084;-71
2022/03/22 05:48:48;;;;;;;43.47;27.42;;;5.60;99.90;;;;;;5052355;28;20049;-71
2022/03/22 05:51:16;;;;;;;43.60;27.77;;;5.70;99.90;;;;;;5056355;28;20055;-71
2022/03/22 05:53:44;;;;;;;57.20;27.73;;;5.70;99.90;;;;;;5064675;28;20087;-71
2022/03/22 05:56:11;;;;;;;44.70;27.73;;;5.70;99.90;;;;;;5058640;28;20427;-70
2022/03/22 05:58:38;;;;;;;43.92;27.55;;;5.70;99.90;;;;;;5064870;28;20053;-70
2022/03/22 06:01:06;;;;;;;40.50;26.58;;;5.80;99.90;;;;;;5059457;28;20048;-70
2022/03/22 06:03:34;;;;;;;41.38;28.02;;;5.80;99.90;;;;;;5054069;28;20061;-70
2022/03/22 06:06:01;;;;;;;41.30;27.42;;;5.90;99.90;;;;;;5057522;28;20124;-69
2022/03/22 06:08:29;;;;;;;44.00;28.00;;;5.90;99.90;;;;;;5054592;28;20103;-71
2022/03/22 06:10:56;;;;;;;41.97;27.30;;;5.90;99.90;;;;;;5065734;28;20056;-71
2022/03/22 06:13:23;;;;;;;40.75;26.63;;;6.00;99.90;;;;;;5067042;28;20044;-70
2022/03/22 06:15:50;;;;;;;39.75;26.38;;;6.10;99.90;;;;;;5071063;28;20049;-70
2022/03/22 06:18:19;;;;;;;41.67;27.40;;;6.10;99.90;;;;;;5064828;28;20500;-70
2022/03/22 06:20:45;;;;;;;45.05;28.02;;;6.20;99.90;;;;;;5063518;28;20044;-70
2022/03/22 06:23:15;;;;;;;43.83;26.80;;;6.30;99.90;;;;;;5063636;28;20052;-70
2022/03/22 06:25:43;;;;;;;46.45;28.02;;;6.30;99.90;;;;;;5064145;28;20076;-70
2022/03/22 06:28:13;;;;;;;37.63;26.52;;;6.40;99.90;;;;;;5064193;28;20048;-70
2022/03/22 06:30:40;;;;;;;43.33;27.17;;;6.50;99.90;;;;;;5066787;28;20076;-70
2022/03/22 06:33:12;;;;;;;43.42;27.38;;;6.60;99.90;;;;;;5064488;28;20138;-70
2022/03/22 06:35:43;;;;;;;41.50;27.42;;;6.70;99.90;;;;;;5062336;28;20059;-70
2022/03/22 06:38:10;;;;;;;38.75;26.23;;;6.80;99.90;;;;;;5064038;28;20045;-71
2022/03/22 06:40:38;;;;;;;42.50;27.75;;;6.90;99.90;;;;;;5066038;28;20072;-71
2022/03/22 06:43:07;;;;;;;40.60;25.77;;;7.00;99.90;;;;;;5064370;28;20056;-71
2022/03/22 06:45:34;;;;;;;43.70;26.15;;;7.10;99.90;;;;;;5067651;28;20102;-70
2022/03/22 06:48:01;;;;;;;47.90;25.60;;;7.30;99.90;;;;;;5064722;28;20051;-69
2022/03/22 06:50:28;;;;;;;40.25;26.20;;;7.40;99.90;;;;;;5064621;28;20067;-71
2022/03/22 06:52:56;;;;;;;36.85;24.40;;;7.50;99.90;;;;;;5062557;28;20110;-70
2022/03/22 06:55:23;;;;;;;41.30;26.88;;;7.70;99.90;;;;;;5064242;28;20507;-71
2022/03/22 06:57:52;;;;;;;38.03;24.70;;;7.90;99.90;;;;;;5063513;28;20135;-72
2022/03/22 07:00:20;;;;;;;39.35;26.85;;;8.20;99.90;;;;;;5067957;28;20052;-69
2022/03/22 07:02:49;;;;;;;38.28;24.73;;;8.50;99.90;;;;;;5062632;28;20041;-71
2022/03/22 07:05:16;;;;;;;43.22;26.88;;;8.80;99.90;;;;;;5063900;28;20044;-71
2022/03/22 07:07:43;;;;;;;36.50;25.27;;;9.20;99.90;;;;;;5063568;28;20052;-68
2022/03/22 07:10:15;;;;;;;37.25;24.45;;;9.30;99.90;;;;;;5064862;28;20049;-66
2022/03/22 07:12:53;;;;;;;34.58;23.88;;;9.40;99.90;;;;;;5051234;28;20066;-66
2022/03/22 07:15:23;;;;;;;39.95;25.50;;;9.50;99.90;;;;;;5052476;28;20107;-76
2022/03/22 07:17:52;;;;;;;35.63;24.00;;;9.60;99.90;;;;;;5055905;28;20053;-76
2022/03/22 07:20:20;;;;;;;37.30;25.30;;;9.60;99.90;;;;;;5069497;28;20088;-76
2022/03/22 07:22:47;;;;;;;44.60;24.15;;;9.70;99.90;;;;;;5080227;28;20055;-76
2022/03/22 07:25:15;;;;;;;38.75;25.13;;;9.80;99.90;;;;;;5080942;28;20097;-75
2022/03/22 07:27:42;;;;;;;38.83;24.77;;;9.90;99.90;;;;;;5064790;28;20064;-76
2022/03/22 07:30:11;;;;;;;35.17;25.02;;;10.00;99.90;;;;;;5105959;28;20564;-76
2022/03/22 07:32:38;;;;;;;35.75;24.05;;;10.10;99.90;;;;;;5095419;28;20050;-76
2022/03/22 07:35:07;;;;;;;40.25;23.83;;;10.60;99.90;;;;;;5084519;28;20047;-76
2022/03/22 07:37:34;;;;;;;41.22;24.13;;;11.60;99.90;;;;;;5096543;28;20571;-76
2022/03/22 07:40:02;;;;;;;36.08;24.88;;;12.50;99.90;;;;;;5095193;28;20564;-76
2022/03/22 07:42:30;;;;;;;33.35;22.60;;;13.40;99.90;;;;;;5114547;28;20053;-77
2022/03/22 07:44:58;;;;;;;32.67;24.08;;;14.10;99.90;;;;;;5094835;28;20101;-77
2022/03/22 07:47:25;;;;;;;34.30;23.73;;;14.70;99.90;;;;;;5101723;28;20109;-77
2022/03/22 07:55:22;;;;;;;33.17;22.48;;;16.40;99.90;;;;;;5104948;28;20139;-80
2022/03/22 07:57:50;;;;;;;30.45;21.60;;;16.80;99.30;;;;;;5095945;28;20060;-79
2022/03/22 08:00:18;;;;;;;31.55;20.92;;;16.90;98.30;;;;;;5078452;28;20055;-79
2022/03/22 08:02:52;;;;;;;34.35;22.27;;;16.70;97.70;;;;;;5092700;28;20122;-78
2022/03/22 08:05:19;;;;;;;29.23;20.83;;;16.70;95.80;;;;;;5093407;28;20091;-79
2022/03/22 08:07:46;;;;;;;28.45;21.02;;;17.00;96.60;;;;;;5075464;28;20385;-78
2022/03/22 08:10:14;;;;;;;30.50;21.95;;;17.30;95.70;;;;;;5096779;28;20488;-78
2022/03/22 08:12:41;;;;;;;33.53;22.13;;;17.60;94.90;;;;;;5114117;28;20104;-78
2022/03/22 08:15:10;;;;;;;28.20;20.63;;;17.60;93.80;;;;;;5101869;28;20380;-76
2022/03/22 08:17:39;;;;;;;30.80;21.70;;;17.30;93.50;;;;;;5078970;28;20078;-76
2022/03/22 08:20:08;;;;;;;30.65;20.73;;;17.20;93.80;;;;;;5096195;28;20099;-76
2022/03/22 08:22:50;;;;;;;31.30;21.95;;;16.80;93.60;;;;;;5078372;28;20564;-76
2022/03/22 08:25:19;;;;;;;32.25;21.55;;;16.40;93.00;;;;;;5076888;28;20131;-76
2022/03/22 08:27:46;;;;;;;27.83;20.95;;;16.20;93.70;;;;;;5096478;28;20054;-76
2022/03/22 08:30:17;;;;;;;32.35;20.75;;;15.90;93.90;;;;;;5081520;28;20103;-76
2022/03/22 08:32:45;;;;;;;30.15;20.85;;;15.80;94.00;;;;;;5077830;28;20063;-78
2022/03/22 08:35:11;;;;;;;31.58;23.02;;;15.90;94.50;;;;;;5096168;28;20052;-78
2022/03/22 08:37:38;;;;;;;29.42;21.65;;;16.00;94.10;;;;;;5096706;28;20044;-79
2022/03/22 08:40:06;;;;;;;33.00;21.35;;;16.10;94.00;;;;;;5095913;28;20052;-79
2022/03/22 08:42:33;;;;;;;26.98;20.15;;;16.70;93.60;;;;;;5095943;28;20040;-78
2022/03/22 08:45:00;;;;;;;30.05;22.17;;;17.40;93.10;;;;;;5096357;28;20044;-77
2022/03/22 08:47:29;;;;;;;28.02;20.83;;;17.80;92.60;;;;;;5095585;28;20101;-76
2022/03/22 08:49:56;;;;;;;32.63;22.70;;;18.00;92.10;;;;;;5078210;28;20062;-79
2022/03/22 08:52:23;;;;;;;30.58;22.15;;;18.10;91.90;;;;;;5084878;28;20450;-79
2022/03/22 08:54:51;;;;;;;28.42;20.58;;;18.20;91.70;;;;;;5095526;28;20101;-79
2022/03/22 08:57:18;;;;;;;28.00;21.98;;;18.40;91.40;;;;;;5077746;28;20052;-78
2022/03/22 08:59:45;;;;;;;27.77;21.52;;;19.10;90.90;;;;;;5077703;28;20044;-78
2022/03/22 09:02:12;;;;;;;28.25;20.38;;;19.40;90.20;;;;;;5095477;28;20044;-78
2022/03/22 09:07:25;;;;;;;26.10;19.60;;;20.10;87.40;;;;;;5074915;28;20059;-78
2022/03/22 09:09:51;;;;;;;26.85;20.73;;;21.20;85.70;;;;;;5075325;28;20060;-78
2022/03/22 09:12:18;;;;;;;26.73;20.55;;;22.00;82.90;;;;;;5074271;28;20056;-79
2022/03/22 09:14:45;;;;;;;32.72;20.67;;;22.80;81.10;;;;;;5077262;28;20051;-80
2022/03/22 09:17:13;;;;;;;26.60;20.90;;;23.30;78.80;;;;;;5076888;28;20459;-80
2022/03/22 09:19:41;;;;;;;26.20;20.77;;;23.70;76.50;;;;;;5095693;28;20083;-79
2022/03/22 09:22:10;;;;;;;27.95;20.58;;;24.20;73.30;;;;;;5095289;28;20130;-80
2022/03/22 09:24:37;;;;;;;25.05;20.25;;;24.30;71.90;;;;;;5077757;28;20176;-79
2022/03/22 09:27:04;;;;;;;24.42;19.92;;;24.20;70.00;;;;;;5073795;28;20053;-80
2022/03/22 09:29:31;;;;;;;24.77;20.00;;;23.90;69.30;;;;;;5083882;28;20040;-79
2022/03/22 09:31:58;;;;;;;26.50;20.88;;;24.10;69.40;;;;;;5081181;28;20049;-81
2022/03/22 09:34:25;;;;;;;29.23;21.25;;;23.80;68.70;;;;;;5070763;28;20064;-80
2022/03/22 09:36:53;;;;;;;26.13;19.88;;;23.80;68.20;;;;;;5054766;28;20049;-81
2022/03/22 09:39:20;;;;;;;26.50;20.45;;;24.20;67.10;;;;;;5054781;28;20487;-81
2022/03/22 09:41:49;;;;;;;24.75;20.33;;;24.70;66.00;;;;;;5054998;28;20057;-81
2022/03/22 09:44:19;;;;;;;26.45;20.92;;;24.80;64.60;;;;;;5053549;28;20045;-81
2022/03/22 09:46:48;;;;;;;29.60;20.40;;;24.60;64.00;;;;;;5063735;28;20048;-81
2022/03/22 09:49:16;;;;;;;25.80;20.52;;;25.10;64.60;;;;;;5074785;28;20044;-81
2022/03/22 09:51:47;;;;;;;25.85;20.92;;;25.10;63.90;;;;;;5073017;28;20049;-81
2022/03/22 09:54:18;;;;;;;25.45;20.30;;;25.40;63.50;;;;;;5075010;28;20130;-81
2022/03/22 09:56:47;;;;;;;23.48;19.42;;;25.60;62.60;;;;;;5076692;28;20131;-81
2022/03/22 09:59:15;;;;;;;23.55;18.90;;;26.00;62.10;;;;;;5073480;28;20060;-81
2022/03/22 10:01:42;;;;;;;24.15;18.65;;;26.00;61.20;;;;;;5070155;28;20045;-81
2022/03/22 10:04:12;;;;;;;26.23;19.40;;;26.40;61.00;;;;;;5052863;28;20046;-82
2022/03/22 10:06:45;;;;;;;24.63;19.60;;;26.40;60.00;;;;;;5054084;28;20059;-82
2022/03/22 10:09:12;;;;;;;26.25;19.15;;;26.60;60.20;;;;;;5053994;28;20079;-83
2022/03/22 10:11:42;;;;;;;25.80;19.92;;;26.90;59.50;;;;;;5052686;28;20497;-83
2022/03/22 10:14:11;;;;;;;21.35;17.58;;;26.90;59.00;;;;;;5058608;28;20496;-84
2022/03/22 10:16:50;;;;;;;26.30;20.38;;;26.60;57.90;;;;;;5074239;28;20060;-83
2022/03/22 10:19:21;;;;;;;24.83;18.98;;;26.90;56.70;;;;;;5072727;28;20176;-83
2022/03/22 10:21:48;;;;;;;23.20;19.30;;;27.70;56.70;;;;;;5073957;28;20071;-82
2022/03/22 10:24:16;;;;;;;24.23;19.00;;;27.90;57.00;;;;;;5074285;28;20098;-82
2022/03/22 10:26:46;;;;;;;22.55;18.88;;;27.50;56.70;;;;;;5072347;28;20058;-82
2022/03/22 10:29:14;;;;;;;27.08;18.95;;;27.40;56.30;;;;;;5081526;28;20051;-82
2022/03/22 10:31:42;;;;;;;23.83;17.48;;;27.40;56.40;;;;;;5082768;28;20443;-83
2022/03/22 10:34:10;;;;;;;25.25;18.23;;;28.30;55.80;;;;;;5069496;28;20048;-83
2022/03/22 10:36:40;;;;;;;25.08;17.83;;;29.00;54.40;;;;;;5052667;28;20045;-82
2022/03/22 10:39:08;;;;;;;27.88;18.08;;;28.80;54.10;;;;;;5053235;28;20500;-82
2022/03/22 10:41:40;;;;;;;23.88;18.23;;;28.40;53.90;;;;;;5053361;28;20052;-83
2022/03/22 10:44:10;;;;;;;22.08;17.13;;;28.50;53.30;;;;;;5058955;28;20044;-82
2022/03/22 10:46:39;;;;;;;23.83;17.45;;;28.60;53.50;;;;;;5073165;28;20403;-83
2022/03/22 10:49:09;;;;;;;21.45;16.70;;;28.90;53.70;;;;;;5073030;28;20087;-82
2022/03/22 10:51:42;;;;;;;21.40;16.67;;;29.30;53.00;;;;;;5074494;28;20048;-83
2022/03/22 10:54:09;;;;;;;21.23;17.58;;;29.00;52.70;;;;;;5073295;28;20051;-83
2022/03/22 10:56:36;;;;;;;25.10;16.75;;;29.30;52.90;;;;;;5073190;28;20060;-84
2022/03/22 10:59:04;;;;;;;21.77;17.48;;;29.60;52.20;;;;;;5073894;28;20051;-85
2022/03/22 11:01:33;;;;;;;20.17;16.88;;;29.80;52.10;;;;;;5072636;28;20084;-84
2022/03/22 11:04:00;;;;;;;24.50;16.08;;;29.70;51.80;;;;;;5072132;28;20110;-83
2022/03/22 11:06:31;;;;;;;24.02;16.35;;;30.00;51.30;;;;;;5069931;28;20124;-84
2022/03/22 11:09:00;;;;;;;23.40;16.52;;;30.20;51.50;;;;;;5073505;28;20053;-83
2022/03/22 11:11:28;;;;;;;23.70;15.90;;;30.80;50.80;;;;;;5073932;28;20458;-83
2022/03/22 11:13:56;;;;;;;23.98;16.67;;;30.50;50.60;;;;;;5072314;28;20052;-82
2022/03/22 11:16:24;;;;;;;20.15;14.52;;;30.10;50.50;;;;;;5073981;28;20177;-83
2022/03/22 11:18:52;;;;;;;21.80;15.82;;;30.50;50.90;;;;;;5072618;28;20113;-85
2022/03/22 11:21:21;;;;;;;18.73;15.63;;;30.70;50.70;;;;;;5073477;28;20048;-84
2022/03/22 11:23:49;;;;;;;17.73;14.70;;;30.90;50.80;;;;;;5073854;28;20046;-84
2022/03/22 11:26:20;;;;;;;23.23;16.67;;;31.00;50.70;;;;;;5083811;28;20502;-85
2022/03/22 11:28:49;;;;;;;19.83;15.88;;;31.00;50.30;;;;;;5079848;28;20521;-84
2022/03/22 11:31:20;;;;;;;29.47;17.03;;;30.70;50.20;;;;;;5081818;28;20048;-82
2022/03/22 11:36:44;;;;;;;19.23;15.93;;;30.60;49.90;;;;;;5066974;28;20487;-85
2022/03/22 11:39:16;;;;;;;22.95;16.65;;;31.10;49.60;;;;;;5067209;28;20056;-85
2022/03/22 11:44:36;;;;;;;20.23;16.63;;;31.00;48.40;;;;;;5065840;28;20058;-83
2022/03/22 11:47:06;;;;;;;19.02;15.20;;;31.30;48.50;;;;;;5069460;28;20114;-83
2022/03/22 11:49:48;;;;;;;21.45;16.65;;;31.10;48.50;;;;;;5065951;28;20097;-84
2022/03/22 11:52:17;;;;;;;22.33;16.38;;;30.80;47.80;;;;;;5087633;28;20048;-85
2022/03/22 11:54:56;;;;;;;21.48;16.38;;;30.70;48.40;;;;;;5072033;28;20044;-83
2022/03/22 11:57:23;;;;;;;21.88;15.90;;;31.20;48.00;;;;;;5069659;28;20056;-85
2022/03/22 11:59:52;;;;;;;21.15;15.77;;;31.20;48.00;;;;;;5085878;28;20044;-84
2022/03/22 12:02:21;;;;;;;17.88;15.52;;;31.40;48.10;;;;;;5069733;28;20086;-84
2022/03/22 12:04:51;;;;;;;22.92;17.00;;;31.50;47.80;;;;;;5067602;28;20052;-83
2022/03/22 12:07:27;;;;;;;21.00;17.27;;;31.20;47.90;;;;;;5069737;28;20063;-83
2022/03/22 12:09:55;;;;;;;24.27;17.38;;;31.40;47.30;;;;;;5090931;28;20510;-83
2022/03/22 12:12:22;;;;;;;23.25;16.77;;;31.30;47.70;;;;;;5088036;28;20080;-83
2022/03/22 12:14:49;;;;;;;23.90;16.85;;;31.40;47.70;;;;;;5094246;28;20040;-82
2022/03/22 12:17:17;;;;;;;20.75;16.77;;;30.60;48.00;;;;;;5100994;28;20487;-83
2022/03/22 12:19:44;;;;;;;20.17;16.10;;;30.80;48.20;;;;;;5085243;28;20150;-83
2022/03/22 12:22:11;;;;;;;22.52;17.02;;;31.10;48.00;;;;;;5102968;28;20106;-83
2022/03/22 12:24:39;;;;;;;22.35;16.90;;;31.10;48.00;;;;;;5102653;28;20097;-83
2022/03/22 12:27:08;;;;;;;24.08;16.33;;;31.40;47.40;;;;;;5103868;28;20450;-83
2022/03/22 12:29:41;;;;;;;24.13;17.27;;;31.20;47.70;;;;;;5082173;28;20052;-84
2022/03/22 12:32:17;;;;;;;24.63;16.17;;;31.40;47.60;;;;;;5064093;28;20060;-83
2022/03/22 12:34:45;;;;;;;21.58;17.38;;;31.00;47.80;;;;;;5082603;28;20048;-84
2022/03/22 12:37:13;;;;;;;20.38;17.00;;;31.30;47.60;;;;;;5084415;28;20057;-84
2022/03/22 12:39:43;;;;;;;24.58;18.80;;;31.40;47.50;;;;;;5092276;28;20048;-85
2022/03/22 12:42:12;;;;;;;23.67;17.80;;;31.20;47.50;;;;;;5074863;28;20055;-84
2022/03/22 12:44:39;;;;;;;22.85;16.75;;;31.20;47.40;;;;;;5092449;28;20454;-84
2022/03/22 12:47:07;;;;;;;20.35;16.48;;;30.80;48.30;;;;;;5091490;28;20070;-84
2022/03/22 12:49:35;;;;;;;23.05;17.75;;;31.80;47.70;;;;;;5074037;28;20105;-84
2022/03/22 12:52:02;;;;;;;22.73;17.65;;;32.10;47.40;;;;;;5073175;28;20056;-85
2022/03/22 12:54:33;;;;;;;24.73;16.65;;;31.60;47.40;;;;;;5067509;28;20044;-85
2022/03/22 12:57:03;;;;;;;23.70;16.50;;;31.30;47.60;;;;;;5104825;28;20048;-85
2022/03/22 12:59:30;;;;;;;;;;;31.90;47.20;;;;;;5077837;28;20097;-84
2022/03/22 13:01:58;;;;;;;24.20;17.13;;;32.00;47.10;;;;;;5114843;28;20393;-85
2022/03/22 13:04:28;;;;;;;24.70;17.30;;;31.40;46.90;;;;;;5116599;28;20087;-84
2022/03/22 13:06:59;;;;;;;;;;;31.90;47.30;;;;;;5116829;28;20354;-82
2022/03/22 13:12:15;;;;;;;20.67;16.40;;;31.60;48.10;;;;;;5116934;28;20051;-84
2022/03/22 13:17:29;;;;;;;19.77;15.15;;;31.70;46.90;;;;;;5082648;28;20066;-83
2022/03/22 13:19:56;;;;;;;21.42;16.33;;;31.70;46.70;;;;;;5078424;28;20590;-82
2022/03/22 13:22:25;;;;;;;20.35;16.15;;;32.10;46.80;;;;;;5095745;28;20135;-83